Time;durP1;ratioP1;P1;durP2;ratioP2;P2;SDS_P1;SDS_P2;PMS_P1;PMS_P2;Temp;Humidity;BMP_temperature;BMP_pressure;BME280_temperature;BME280_humidity;BME280_pressure;Samples;Min_cycle;Max_cycle;Signal;HPM_P1;HPM_P2
2023/12/31 08:42:09;;;;;;;;;;;;;;;7.62;59.96;97090.78;5096040;27;19916;-58
2023/12/31 08:44:57;;;;;;;;;;;;;;;7.70;59.48;97086.50;5103214;28;19924;-57
2023/12/31 08:47:53;;;;;;;;;;;;;;;7.68;59.23;97084.13;5100427;28;20001;-58
2023/12/31 08:50:44;;;;;;;;;;;;;;;7.37;59.88;97077.94;5094888;28;20300;-58
2023/12/31 08:53:32;;;;;;;;;;;;;;;7.71;60.32;97080.75;5085609;28;19927;-59
2023/12/31 08:56:21;;;;;;;;;;;;;;;7.25;60.33;97089.31;5093966;28;20556;-58
2023/12/31 08:59:10;;;;;;;;;;;;;;;7.34;60.26;97085.53;5096161;28;20022;-58
2023/12/31 09:01:58;;;;;;;;;;;;;;;7.58;60.36;97095.19;5093692;28;20031;-58
2023/12/31 09:04:49;;;;;;;;;;;;;;;7.56;59.63;97090.13;5099894;28;19928;-58
2023/12/31 09:07:37;;;;;;;;;;;;;;;7.44;60.19;97099.91;5085219;28;19927;-58
2023/12/31 09:10:26;;;;;;;;;;;;;;;7.57;59.73;97090.91;5094058;28;20430;-60
2023/12/31 09:13:14;;;;;;;;;;;;;;;7.47;59.79;97091.19;5096324;28;19926;-58
2023/12/31 09:16:04;;;;;;;;;;;;;;;7.45;60.04;97102.28;5100429;28;20328;-58
2023/12/31 09:18:52;;;;;;;;;;;;;;;7.61;59.70;97106.16;5092093;28;20316;-58
2023/12/31 09:21:40;;;;;;;;;;;;;;;7.65;59.25;97106.34;5121107;27;20041;-60
2023/12/31 09:24:28;;;;;;;;;;;;;;;7.69;58.71;97107.31;5120295;28;20067;-58
2023/12/31 09:27:16;;;;;;;;;;;;;;;7.67;58.52;97112.25;5118201;27;19930;-57
2023/12/31 09:30:05;;;;;;;;;;;;;;;7.69;59.07;97107.31;5124601;28;20257;-59
2023/12/31 09:32:55;;;;;;;;;;;;;;;7.70;58.50;97108.13;5090438;28;19921;-58
2023/12/31 09:35:44;;;;;;;;;;;;;;;7.61;58.82;97108.06;5100081;28;19932;-58
2023/12/31 09:38:32;;;;;;;;;;;;;;;7.60;58.58;97103.78;5098729;28;20329;-59
2023/12/31 09:41:22;;;;;;;;;;;;;;;7.18;59.50;97092.44;5098004;28;20005;-58
2023/12/31 09:44:10;;;;;;;;;;;;;;;7.53;59.39;97095.34;5098426;28;19928;-58
2023/12/31 09:47:01;;;;;;;;;;;;;;;7.54;59.06;97103.13;5119533;27;19927;-58
2023/12/31 09:49:58;;;;;;;;;;;;;;;7.53;59.17;97079.91;5120334;27;19920;-59
2023/12/31 09:52:47;;;;;;;;;;;;;;;7.59;58.76;97077.88;5108970;27;19931;-60
2023/12/31 09:55:36;;;;;;;;;;;;;;;7.63;58.50;97065.31;5106160;27;19920;-59
2023/12/31 09:58:24;;;;;;;;;;;;;;;6.92;60.48;97035.56;5111243;27;19996;-61
2023/12/31 10:01:12;;;;;;;;;;;;;;;7.43;59.51;97061.25;5107552;27;19938;-59
2023/12/31 10:04:00;;;;;;;;;;;;;;;7.67;57.59;97060.91;5108108;27;19972;-58
2023/12/31 10:06:50;;;;;;;;;;;;;;;7.88;57.57;97066.50;5103273;27;20442;-61
2023/12/31 10:09:39;;;;;;;;;;;;;;;8.00;57.07;97061.31;5104457;27;20342;-59
2023/12/31 10:12:27;;;;;;;;;;;;;;;8.06;57.07;97056.53;5110426;28;20015;-58
2023/12/31 10:15:15;;;;;;;;;;;;;;;8.30;56.49;97069.59;5106831;27;19961;-58
2023/12/31 10:18:04;;;;;;;;;;;;;;;8.16;55.57;97056.25;5094726;27;20386;-58
2023/12/31 10:20:54;;;;;;;;;;;;;;;8.38;55.62;97047.22;5102269;27;20349;-58
2023/12/31 10:23:44;;;;;;;;;;;;;;;8.53;55.41;97032.41;5108580;27;24400;-58
2023/12/31 10:26:36;;;;;;;;;;;;;;;8.65;55.01;97033.34;5108688;27;19995;-59
2023/12/31 10:29:24;;;;;;;;;;;;;;;8.59;55.31;97025.72;5113904;27;19919;-58
2023/12/31 10:32:12;;;;;;;;;;;;;;;8.73;55.23;97020.91;5112409;27;20533;-58
2023/12/31 10:35:03;;;;;;;;;;;;;;;8.80;54.94;97013.09;5107687;28;19919;-59
2023/12/31 10:38:00;;;;;;;;;;;;;;;8.82;54.29;97020.91;5118474;27;19935;-59
2023/12/31 10:40:50;;;;;;;;;;;;;;;8.87;54.57;97016.13;5110264;27;19931;-59
2023/12/31 10:43:38;;;;;;;;;;;;;;;8.88;54.46;97006.88;5106547;28;19943;-59
2023/12/31 10:46:26;;;;;;;;;;;;;;;8.87;54.80;97005.28;5108619;27;19968;-59
2023/12/31 10:49:14;;;;;;;;;;;;;;;8.85;53.85;97007.53;5107684;28;19920;-59
2023/12/31 10:52:03;;;;;;;;;;;;;;;8.96;54.25;97009.91;5105792;28;20027;-59
2023/12/31 10:54:53;;;;;;;;;;;;;;;8.96;54.00;96993.66;5106060;28;19924;-60
2023/12/31 10:57:43;;;;;;;;;;;;;;;8.86;54.15;96998.28;5103142;28;19955;-59
2023/12/31 11:00:31;;;;;;;;;;;;;;;8.84;54.67;96988.88;5105691;28;19920;-60
2023/12/31 11:03:19;;;;;;;;;;;;;;;8.23;54.98;96977.28;5105209;28;19926;-59
2023/12/31 11:06:07;;;;;;;;;;;;;;;8.70;54.83;96978.25;5109167;27;19920;-60
2023/12/31 11:08:56;;;;;;;;;;;;;;;8.75;55.01;96967.25;5102971;28;19920;-59
2023/12/31 11:11:43;;;;;;;;;;;;;;;8.72;54.77;96954.31;5105634;28;19978;-58
2023/12/31 11:14:33;;;;;;;;;;;;;;;8.75;54.51;96942.88;5105365;28;20037;-60
2023/12/31 11:17:25;;;;;;;;;;;;;;;8.71;53.95;96950.03;5106690;28;19920;-60
2023/12/31 11:20:28;;;;;;;;;;;;;;;8.96;53.77;96947.59;5099239;28;20368;-59
2023/12/31 11:23:23;;;;;;;;;;;;;;;9.10;54.49;96934.59;5100392;28;19927;-59
2023/12/31 11:26:12;;;;;;;;;;;;;;;9.01;53.65;96923.81;5099528;28;19919;-59
2023/12/31 11:29:00;;;;;;;;;;;;;;;9.00;53.26;96924.13;5097417;28;19920;-59
2023/12/31 11:31:50;;;;;;;;;;;;;;;9.16;52.83;96908.91;5101290;27;20307;-60
2023/12/31 11:34:39;;;;;;;;;;;;;;;9.22;52.26;96899.50;5103133;27;19927;-59
2023/12/31 11:37:27;;;;;;;;;;;;;;;8.62;53.30;96885.06;5099519;28;19924;-60
2023/12/31 11:40:15;;;;;;;;;;;;;;;8.99;51.86;96874.56;5101536;27;19927;-60
2023/12/31 11:43:09;;;;;;;;;;;;;;;8.95;51.87;96872.84;5106225;28;19919;-60
2023/12/31 11:45:57;;;;;;;;;;;;;;;9.18;51.78;96874.97;5101586;27;19957;-60
2023/12/31 11:48:47;;;;;;;;;;;;;;;8.85;52.00;96850.44;5103767;28;20435;-60
2023/12/31 11:51:51;;;;;;;;;;;;;;;9.15;51.89;96842.28;5093072;28;20432;-60
2023/12/31 11:54:40;;;;;;;;;;;;;;;9.34;51.17;96839.97;5105247;27;19931;-61
2023/12/31 11:57:29;;;;;;;;;;;;;;;9.21;51.57;96840.97;5104110;27;19927;-60
2023/12/31 12:00:17;;;;;;;;;;;;;;;9.14;51.24;96851.56;5103785;28;20008;-60
2023/12/31 12:03:06;;;;;;;;;;;;;;;9.00;51.94;96821.19;5101579;28;19926;-60
2023/12/31 12:05:56;;;;;;;;;;;;;;;8.78;52.29;96814.13;5106400;27;19923;-60
2023/12/31 12:08:44;;;;;;;;;;;;;;;9.16;51.86;96811.38;5103368;28;19942;-60
2023/12/31 12:11:34;;;;;;;;;;;;;;;8.98;51.37;96807.19;5113883;27;19932;-60
2023/12/31 12:14:22;;;;;;;;;;;;;;;9.20;51.31;96798.75;5108032;27;19919;-60
2023/12/31 12:17:11;;;;;;;;;;;;;;;9.04;51.27;96786.91;5102171;28;20376;-60
2023/12/31 12:19:59;;;;;;;;;;;;;;;9.01;51.68;96771.31;5102779;28;19932;-60
2023/12/31 12:22:51;;;;;;;;;;;;;;;9.22;50.89;96776.75;5100896;28;20423;-60
2023/12/31 12:25:42;;;;;;;;;;;;;;;8.66;52.19;96785.03;5098300;28;19939;-59
2023/12/31 12:28:31;;;;;;;;;;;;;;;8.85;52.81;96785.44;5103730;28;19920;-60
2023/12/31 12:31:20;;;;;;;;;;;;;;;9.05;52.03;96774.94;5098799;28;20014;-60
2023/12/31 12:34:08;;;;;;;;;;;;;;;8.78;52.67;96777.00;5091908;28;19920;-60
2023/12/31 12:36:59;;;;;;;;;;;;;;;8.78;52.98;96785.13;5103984;27;19942;-60
2023/12/31 12:39:48;;;;;;;;;;;;;;;8.99;52.29;96766.22;5092219;28;19965;-60
2023/12/31 12:42:36;;;;;;;;;;;;;;;8.56;52.74;96772.66;5102722;28;19920;-60
2023/12/31 12:45:26;;;;;;;;;;;;;;;8.93;52.16;96760.19;5104452;28;20309;-60
2023/12/31 12:48:14;;;;;;;;;;;;;;;8.93;51.33;96765.63;5105471;28;19959;-59
2023/12/31 12:51:02;;;;;;;;;;;;;;;9.26;51.97;96785.81;5105410;28;19927;-60
2023/12/31 12:53:51;;;;;;;;;;;;;;;9.36;51.04;96780.78;5103947;28;21744;-60
2023/12/31 12:56:41;;;;;;;;;;;;;;;9.34;51.01;96777.63;5111783;28;19930;-60
2023/12/31 12:59:29;;;;;;;;;;;;;;;9.35;51.27;96771.06;5097130;28;19941;-60
2023/12/31 13:02:17;;;;;;;;;;;;;;;9.38;50.81;96761.50;5095250;28;19926;-60
2023/12/31 13:05:05;;;;;;;;;;;;;;;9.42;50.67;96757.75;5101445;28;19928;-60
2023/12/31 13:07:53;;;;;;;;;;;;;;;9.39;50.54;96750.31;5101425;28;20026;-60
2023/12/31 13:10:41;;;;;;;;;;;;;;;9.40;50.31;96756.53;5096213;28;20369;-60
2023/12/31 13:13:31;;;;;;;;;;;;;;;9.47;50.05;96750.56;5101202;28;20015;-60
2023/12/31 13:16:20;;;;;;;;;;;;;;;9.40;51.01;96753.81;5098936;28;19923;-60
2023/12/31 13:19:11;;;;;;;;;;;;;;;9.35;50.83;96748.59;5094234;28;19924;-60
2023/12/31 13:21:59;;;;;;;;;;;;;;;9.50;50.63;96755.34;5107451;28;20395;-60
2023/12/31 13:24:47;;;;;;;;;;;;;;;9.54;50.94;96756.25;5077786;28;19920;-60
2023/12/31 13:27:35;;;;;;;;;;;;;;;9.42;50.12;96749.63;5084396;28;20399;-59
2023/12/31 13:30:26;;;;;;;;;;;;;;;9.61;50.45;96767.34;5082511;28;19932;-61
2023/12/31 13:33:14;;;;;;;;;;;;;;;9.60;50.23;96780.13;5072422;28;19950;-60
2023/12/31 13:36:03;;;;;;;;;;;;;;;9.63;50.45;96808.47;5088290;28;19952;-61
2023/12/31 13:38:51;;;;;;;;;;;;;;;9.73;49.38;96856.91;5086479;28;20377;-61
2023/12/31 13:41:40;;;;;;;;;;;;;;;9.61;49.81;96856.84;5082739;28;19925;-61
2023/12/31 13:44:28;;;;;;;;;;;;;;;9.54;50.21;96875.56;5079261;28;19919;-61
2023/12/31 13:47:17;;;;;;;;;;;;;;;9.60;50.50;96880.44;5088775;28;19920;-61
2023/12/31 13:50:06;;;;;;;;;;;;;;;9.44;50.56;96882.94;5084141;28;19943;-61
2023/12/31 13:52:54;;;;;;;;;;;;;;;9.56;51.05;96889.56;5086165;28;19924;-61
2023/12/31 13:55:42;;;;;;;;;;;;;;;9.64;51.56;96888.69;5083545;28;19932;-61
2023/12/31 13:58:30;;;;;;;;;;;;;;;9.53;51.35;96895.63;5086654;28;19999;-61
2023/12/31 14:01:18;;;;;;;;;;;;;;;9.56;51.70;96895.00;5086405;28;19928;-60
2023/12/31 14:04:08;;;;;;;;;;;;;;;9.67;52.00;96885.34;5087986;28;19958;-61
2023/12/31 14:06:59;;;;;;;;;;;;;;;9.70;52.05;96888.19;5086734;28;19927;-61
2023/12/31 14:09:47;;;;;;;;;;;;;;;9.66;52.21;96898.13;5084646;28;19920;-61
2023/12/31 14:12:35;;;;;;;;;;;;;;;9.68;52.24;96892.34;5085630;28;19920;-61
2023/12/31 14:15:30;;;;;;;;;;;;;;;9.64;52.77;96888.69;5088083;28;19920;-62
2023/12/31 14:18:18;;;;;;;;;;;;;;;9.58;53.97;96881.88;5089477;28;19927;-61
2023/12/31 14:21:08;;;;;;;;;;;;;;;9.57;54.99;96885.72;5086701;28;20442;-61
2023/12/31 14:23:56;;;;;;;;;;;;;;;9.53;55.86;96884.78;5084347;28;20025;-61
2023/12/31 14:26:44;;;;;;;;;;;;;;;9.53;56.62;96887.50;5089997;28;19924;-61
2023/12/31 14:29:32;;;;;;;;;;;;;;;9.48;57.52;96893.94;5081734;28;19920;-61
2023/12/31 14:32:20;;;;;;;;;;;;;;;9.50;58.08;96901.72;5086876;28;19920;-61
2023/12/31 14:35:09;;;;;;;;;;;;;;;9.47;58.63;96921.34;5086008;28;19920;-60
2023/12/31 14:37:59;;;;;;;;;;;;;;;9.39;58.92;96918.38;5077215;28;19925;-61
2023/12/31 14:40:47;;;;;;;;;;;;;;;9.37;59.07;96909.75;5076415;28;20021;-60
2023/12/31 14:43:35;;;;;;;;;;;;;;;9.36;59.26;96905.47;5086816;28;19932;-61
2023/12/31 14:46:24;;;;;;;;;;;;;;;9.37;59.21;96917.88;5082665;28;19925;-61
2023/12/31 14:49:12;;;;;;;;;;;;;;;9.36;59.43;96912.81;5083394;28;19960;-60
2023/12/31 14:52:00;;;;;;;;;;;;;;;9.28;60.21;96921.78;5082810;28;20061;-61
2023/12/31 14:54:50;;;;;;;;;;;;;;;9.29;59.80;96916.03;5084194;28;20345;-60
2023/12/31 14:57:41;;;;;;;;;;;;;;;9.28;59.60;96921.78;5076911;28;19920;-61
2023/12/31 15:00:30;;;;;;;;;;;;;;;9.32;59.62;96909.16;5082936;28;19920;-61
2023/12/31 15:03:18;;;;;;;;;;;;;;;9.34;59.27;96913.16;5075747;28;20095;-60
2023/12/31 15:06:09;;;;;;;;;;;;;;;9.37;58.82;96898.13;5084256;28;19927;-60
2023/12/31 15:09:00;;;;;;;;;;;;;;;9.39;59.03;96896.69;5084622;28;19932;-60
2023/12/31 15:11:52;;;;;;;;;;;;;;;9.08;59.10;96891.59;5080425;28;20548;-60
2023/12/31 15:14:40;;;;;;;;;;;;;;;9.32;58.86;96898.31;5076972;28;19943;-60
2023/12/31 15:17:31;;;;;;;;;;;;;;;9.40;58.29;96900.97;5103869;27;19973;-61
2023/12/31 15:20:21;;;;;;;;;;;;;;;9.40;58.36;96900.97;5102418;27;19920;-61
2023/12/31 15:23:09;;;;;;;;;;;;;;;9.40;59.09;96913.75;5100789;27;19920;-60
2023/12/31 15:25:57;;;;;;;;;;;;;;;9.35;57.95;96927.50;5108621;27;19919;-60
2023/12/31 15:28:47;;;;;;;;;;;;;;;9.28;58.07;96938.84;5107794;27;20057;-61
2023/12/31 15:31:36;;;;;;;;;;;;;;;9.35;58.03;96951.88;5107767;27;20342;-60
2023/12/31 15:34:25;;;;;;;;;;;;;;;9.38;57.98;96935.78;5107956;27;19998;-60
2023/12/31 15:37:14;;;;;;;;;;;;;;;9.28;58.24;96940.75;5106536;27;19936;-60
2023/12/31 15:40:02;;;;;;;;;;;;;;;9.14;58.76;96936.34;5102065;28;20016;-61
2023/12/31 15:42:53;;;;;;;;;;;;;;;9.15;58.55;96947.97;5103352;27;20018;-61
2023/12/31 15:45:43;;;;;;;;;;;;;;;9.19;58.67;96948.91;5089720;27;20031;-60
2023/12/31 15:48:31;;;;;;;;;;;;;;;9.21;58.69;96954.00;5100924;27;19928;-60
2023/12/31 15:51:20;;;;;;;;;;;;;;;9.25;58.58;96947.63;5096414;27;20633;-60
2023/12/31 15:54:08;;;;;;;;;;;;;;;9.26;58.63;96941.06;5101083;27;19957;-60
2023/12/31 15:56:59;;;;;;;;;;;;;;;9.30;58.73;96947.44;5106850;27;20365;-61
2023/12/31 15:59:47;;;;;;;;;;;;;;;9.15;59.41;96946.06;5104618;27;20022;-61
2023/12/31 16:02:36;;;;;;;;;;;;;;;9.10;59.43;96946.25;5103153;27;19920;-60
2023/12/31 16:05:25;;;;;;;;;;;;;;;9.23;59.81;96944.44;5098205;27;19971;-61
2023/12/31 16:08:13;;;;;;;;;;;;;;;9.22;58.73;96942.88;5102634;27;20001;-61
2023/12/31 16:11:01;;;;;;;;;;;;;;;9.28;58.46;96951.59;5094596;28;20015;-60
2023/12/31 16:13:49;;;;;;;;;;;;;;;9.32;58.26;96957.94;5101788;27;20019;-61
2023/12/31 16:16:37;;;;;;;;;;;;;;;9.44;57.98;96953.44;5109508;27;19929;-61
2023/12/31 16:19:27;;;;;;;;;;;;;;;9.53;57.61;96939.03;5095865;28;19920;-61
2023/12/31 16:22:15;;;;;;;;;;;;;;;9.61;57.23;96940.91;5096977;28;20662;-61
2023/12/31 16:25:03;;;;;;;;;;;;;;;9.69;57.05;96932.72;5099015;28;19924;-61
2023/12/31 16:27:51;;;;;;;;;;;;;;;9.61;57.72;96943.63;5106956;28;19960;-61
2023/12/31 16:30:40;;;;;;;;;;;;;;;9.81;56.83;96948.28;5103118;28;20317;-60
2023/12/31 16:33:28;;;;;;;;;;;;;;;9.83;56.41;96942.50;5100460;28;19931;-61
2023/12/31 16:36:18;;;;;;;;;;;;;;;9.97;56.10;96953.91;5099893;28;19932;-61
2023/12/31 16:39:06;;;;;;;;;;;;;;;10.00;55.92;96953.22;5101614;28;19920;-61
2023/12/31 16:41:55;;;;;;;;;;;;;;;10.10;55.94;96952.03;5098576;28;20262;-61
2023/12/31 16:44:44;;;;;;;;;;;;;;;9.95;56.32;96956.94;5087558;28;19935;-61
2023/12/31 16:47:33;;;;;;;;;;;;;;;10.08;55.77;96959.75;5100002;28;19947;-61
2023/12/31 16:50:21;;;;;;;;;;;;;;;10.03;55.87;96963.44;5099708;28;19927;-61
2023/12/31 16:53:11;;;;;;;;;;;;;;;10.07;55.52;96947.31;5101292;28;19927;-61
2023/12/31 16:56:00;;;;;;;;;;;;;;;10.10;55.73;96957.47;5099942;28;19920;-61
2023/12/31 16:58:49;;;;;;;;;;;;;;;10.11;55.32;96956.34;5103372;28;19943;-60
2023/12/31 17:01:37;;;;;;;;;;;;;;;10.11;55.14;96942.78;5107720;28;19931;-61
2023/12/31 17:04:25;;;;;;;;;;;;;;;10.08;54.95;96948.88;5109119;27;19988;-60
2023/12/31 17:07:14;;;;;;;;;;;;;;;10.05;55.21;96949.53;5103008;27;19924;-61
2023/12/31 17:10:11;;;;;;;;;;;;;;;9.81;56.22;96936.63;5100567;27;20339;-61
2023/12/31 17:12:59;;;;;;;;;;;;;;;9.91;55.57;96945.19;5108310;27;19919;-61
2023/12/31 17:15:48;;;;;;;;;;;;;;;9.90;56.04;96953.63;5111032;28;19927;-61
2023/12/31 17:18:36;;;;;;;;;;;;;;;9.68;57.22;96979.13;5109617;27;19932;-61
2023/12/31 17:21:24;;;;;;;;;;;;;;;9.86;56.25;96987.97;5109897;27;19930;-61
2023/12/31 17:24:12;;;;;;;;;;;;;;;9.75;56.55;97006.56;5104180;27;20265;-60
2023/12/31 17:27:03;;;;;;;;;;;;;;;9.82;56.62;97006.81;5102418;28;19931;-61
2023/12/31 17:29:51;;;;;;;;;;;;;;;9.69;56.59;96991.56;5101903;28;19926;-61
2023/12/31 17:32:40;;;;;;;;;;;;;;;9.87;56.23;96992.28;5106631;28;20280;-61
2023/12/31 17:35:29;;;;;;;;;;;;;;;9.89;56.43;96992.72;5103632;27;19972;-63
2023/12/31 17:38:17;;;;;;;;;;;;;;;10.00;56.25;97014.84;5106770;27;19924;-61
2023/12/31 17:41:05;;;;;;;;;;;;;;;9.94;56.37;97025.09;5106247;27;19927;-61
2023/12/31 17:43:55;;;;;;;;;;;;;;;9.80;56.62;97041.63;5102806;27;19934;-62
2023/12/31 17:46:43;;;;;;;;;;;;;;;9.86;56.67;97051.16;5117472;27;19936;-61
2023/12/31 17:49:31;;;;;;;;;;;;;;;9.91;56.32;97059.13;5104511;28;20434;-61
2023/12/31 17:52:19;;;;;;;;;;;;;;;9.21;57.85;97052.38;5108111;27;19927;-61
2023/12/31 17:55:07;;;;;;;;;;;;;;;9.25;58.01;97045.19;5109139;27;19957;-61
2023/12/31 17:57:55;;;;;;;;;;;;;;;9.40;57.78;97047.38;5104734;27;19940;-61
2023/12/31 18:00:44;;;;;;;;;;;;;;;9.53;57.45;97047.47;5100856;27;19931;-61
2023/12/31 18:03:32;;;;;;;;;;;;;;;9.59;56.91;97051.63;5099460;28;19919;-61
2023/12/31 18:06:21;;;;;;;;;;;;;;;9.36;57.27;97061.91;5100977;27;19934;-61
2023/12/31 18:09:10;;;;;;;;;;;;;;;9.55;56.80;97077.78;5108260;28;19938;-62
2023/12/31 18:11:58;;;;;;;;;;;;;;;9.45;57.05;97066.16;5105038;27;19920;-62
2023/12/31 18:14:46;;;;;;;;;;;;;;;9.20;58.37;97067.03;5100786;28;19973;-62
2023/12/31 18:17:35;;;;;;;;;;;;;;;8.92;59.21;97051.16;5104519;27;19955;-61
2023/12/31 18:20:23;;;;;;;;;;;;;;;8.95;59.07;97038.06;5099324;27;19938;-63
2023/12/31 18:23:11;;;;;;;;;;;;;;;9.12;58.82;97038.84;5099895;27;19925;-61
2023/12/31 18:25:59;;;;;;;;;;;;;;;9.24;58.03;97048.22;5105130;27;19956;-62
2023/12/31 18:28:48;;;;;;;;;;;;;;;9.29;57.73;97056.97;5104584;27;19919;-61
2023/12/31 18:31:37;;;;;;;;;;;;;;;9.44;57.50;97051.03;5102276;27;19927;-61
2023/12/31 18:34:28;;;;;;;;;;;;;;;9.33;57.47;97059.84;5101596;28;20010;-61
2023/12/31 18:37:20;;;;;;;;;;;;;;;9.38;57.60;97063.19;5104319;27;20487;-61
2023/12/31 18:40:08;;;;;;;;;;;;;;;9.51;57.13;97063.28;5097640;27;19928;-61
2023/12/31 18:42:56;;;;;;;;;;;;;;;9.36;57.73;97073.53;5099220;27;20360;-61
2023/12/31 18:45:46;;;;;;;;;;;;;;;9.43;57.78;97081.97;5103094;27;19924;-61
2023/12/31 18:48:34;;;;;;;;;;;;;;;9.41;58.07;97080.69;5115237;27;20383;-61
2023/12/31 18:51:28;;;;;;;;;;;;;;;9.44;57.92;97099.84;5102685;27;19989;-61
2023/12/31 18:54:17;;;;;;;;;;;;;;;9.28;58.11;97112.31;5106263;27;19957;-61
2023/12/31 18:57:05;;;;;;;;;;;;;;;9.24;57.88;97111.34;5106179;27;19927;-61
2023/12/31 18:59:53;;;;;;;;;;;;;;;9.36;57.87;97097.94;5106380;27;19934;-61
2023/12/31 19:02:41;;;;;;;;;;;;;;;9.26;58.59;97114.53;5100603;27;19931;-61
2023/12/31 19:05:32;;;;;;;;;;;;;;;9.25;58.78;97110.22;5106183;27;19927;-61
2023/12/31 19:08:22;;;;;;;;;;;;;;;8.73;60.58;97107.56;5105188;27;19926;-61
2023/12/31 19:11:10;;;;;;;;;;;;;;;8.90;60.14;97110.28;5109834;27;19939;-61
2023/12/31 19:13:58;;;;;;;;;;;;;;;9.03;59.83;97111.22;5101513;27;19924;-61
2023/12/31 19:16:46;;;;;;;;;;;;;;;8.99;59.81;97106.75;5105838;27;19952;-61
2023/12/31 19:19:34;;;;;;;;;;;;;;;8.97;59.83;97109.00;5105364;28;19927;-61
2023/12/31 19:22:22;;;;;;;;;;;;;;;8.88;60.51;97109.78;5102957;27;19927;-61
2023/12/31 19:25:12;;;;;;;;;;;;;;;8.95;60.55;97103.09;5103131;28;19927;-62
2023/12/31 19:28:00;;;;;;;;;;;;;;;8.89;61.01;97106.00;5098654;28;19936;-61
2023/12/31 19:30:49;;;;;;;;;;;;;;;8.92;60.84;97104.53;5098710;27;21703;-62
2023/12/31 19:33:37;;;;;;;;;;;;;;;8.64;61.24;97109.50;5100860;28;19924;-61
2023/12/31 19:36:26;;;;;;;;;;;;;;;8.71;60.69;97104.38;5104919;28;20292;-61
2023/12/31 19:39:14;;;;;;;;;;;;;;;8.52;61.26;97106.59;5107622;28;19927;-61
2023/12/31 19:42:03;;;;;;;;;;;;;;;8.79;60.50;97111.72;5111375;27;19919;-61
2023/12/31 19:44:51;;;;;;;;;;;;;;;8.91;60.28;97114.59;5107117;28;19920;-61
2023/12/31 19:47:39;;;;;;;;;;;;;;;8.94;60.41;97118.56;5104883;27;19920;-61
2023/12/31 19:50:28;;;;;;;;;;;;;;;8.88;60.51;97119.84;5102924;28;19932;-62
2023/12/31 19:53:16;;;;;;;;;;;;;;;9.04;60.18;97117.44;5103836;27;19927;-61
2023/12/31 19:56:04;;;;;;;;;;;;;;;9.02;59.80;97119.69;5104607;28;20063;-61
2023/12/31 19:58:54;;;;;;;;;;;;;;;9.04;60.03;97122.84;5106799;27;19927;-62
2023/12/31 20:01:43;;;;;;;;;;;;;;;8.81;60.37;97120.31;5110439;27;20304;-62
2023/12/31 20:04:31;;;;;;;;;;;;;;;8.91;60.04;97125.41;5105090;28;20503;-62
2023/12/31 20:07:19;;;;;;;;;;;;;;;8.92;59.99;97121.59;5109484;28;20376;-61
2023/12/31 20:10:08;;;;;;;;;;;;;;;8.83;60.66;97123.50;5099928;28;20014;-63
2023/12/31 20:12:56;;;;;;;;;;;;;;;8.90;60.60;97125.75;5102017;28;20012;-61
2023/12/31 20:15:45;;;;;;;;;;;;;;;8.83;60.65;97133.53;5106106;28;19919;-60
2023/12/31 20:18:36;;;;;;;;;;;;;;;8.83;60.58;97134.34;5107692;28;19920;-61
2023/12/31 20:21:24;;;;;;;;;;;;;;;8.76;60.71;97138.63;5107336;28;19976;-61
2023/12/31 20:24:15;;;;;;;;;;;;;;;8.70;60.83;97126.38;5103076;28;19924;-61
2023/12/31 20:27:03;;;;;;;;;;;;;;;8.69;60.73;97136.41;5104411;27;20279;-61
2023/12/31 20:29:51;;;;;;;;;;;;;;;8.54;61.23;97132.25;5104339;27;19927;-61
2023/12/31 20:32:40;;;;;;;;;;;;;;;8.45;61.59;97127.94;5107559;27;19920;-61
2023/12/31 20:35:29;;;;;;;;;;;;;;;8.49;61.39;97131.59;5103812;28;19920;-60
2023/12/31 20:38:17;;;;;;;;;;;;;;;8.50;61.37;97138.63;5097576;28;19920;-60
2023/12/31 20:41:05;;;;;;;;;;;;;;;8.53;61.16;97122.53;5106634;28;19920;-61
2023/12/31 20:43:53;;;;;;;;;;;;;;;8.24;61.13;97122.28;5105906;28;20276;-61
2023/12/31 20:46:42;;;;;;;;;;;;;;;8.27;61.33;97124.38;5099785;28;19924;-61
2023/12/31 20:49:32;;;;;;;;;;;;;;;8.09;62.27;97120.81;5107563;28;20274;-61
2023/12/31 20:52:20;;;;;;;;;;;;;;;8.33;61.67;97118.50;5098707;28;19935;-62
2023/12/31 20:55:08;;;;;;;;;;;;;;;8.34;61.02;97132.81;5105058;28;19939;-61
2023/12/31 20:57:56;;;;;;;;;;;;;;;8.32;61.15;97130.44;5103701;28;20092;-61
2023/12/31 21:00:45;;;;;;;;;;;;;;;8.33;60.62;97118.50;5101278;28;19920;-61
2023/12/31 21:03:33;;;;;;;;;;;;;;;8.37;60.62;97105.97;5103035;28;19945;-60
2023/12/31 21:06:23;;;;;;;;;;;;;;;8.34;60.95;97111.97;5104607;28;19924;-61
2023/12/31 21:09:11;;;;;;;;;;;;;;;8.39;60.48;97103.72;5109666;28;19920;-61
2023/12/31 21:11:59;;;;;;;;;;;;;;;8.36;61.08;97109.78;5100567;28;19920;-61
2023/12/31 21:14:47;;;;;;;;;;;;;;;8.35;60.92;97105.44;5106858;28;19928;-61
2023/12/31 21:17:35;;;;;;;;;;;;;;;8.34;60.43;97109.25;5100977;28;20216;-61
2023/12/31 21:20:24;;;;;;;;;;;;;;;8.09;61.28;97099.97;5105527;28;19921;-62
2023/12/31 21:23:13;;;;;;;;;;;;;;;8.19;61.31;97108.91;5106134;28;19919;-60
2023/12/31 21:26:01;;;;;;;;;;;;;;;8.19;61.24;97117.81;5090869;28;20276;-60
2023/12/31 21:28:49;;;;;;;;;;;;;;;8.25;61.06;97118.47;5106237;28;19920;-61
2023/12/31 21:31:40;;;;;;;;;;;;;;;8.13;61.49;97119.09;5106142;28;19938;-61
2023/12/31 21:34:29;;;;;;;;;;;;;;;8.06;61.84;97116.06;5112118;28;19923;-61
2023/12/31 21:37:17;;;;;;;;;;;;;;;7.94;61.84;97126.69;5105538;28;19920;-61
2023/12/31 21:40:08;;;;;;;;;;;;;;;7.84;62.20;97120.44;5120473;27;20036;-61
2023/12/31 21:42:58;;;;;;;;;;;;;;;7.99;61.72;97126.50;5102330;28;20023;-61
2023/12/31 21:45:46;;;;;;;;;;;;;;;8.04;61.66;97129.91;5115821;27;19993;-61
2023/12/31 21:48:34;;;;;;;;;;;;;;;7.50;63.08;97123.75;5098115;27;19965;-60
2023/12/31 21:51:22;;;;;;;;;;;;;;;7.60;62.61;97125.41;5096916;28;19920;-61
2023/12/31 21:54:10;;;;;;;;;;;;;;;7.50;63.09;97120.25;5102574;27;19928;-61
2023/12/31 21:57:00;;;;;;;;;;;;;;;7.59;62.75;97131.94;5070930;28;19921;-62
2023/12/31 21:59:50;;;;;;;;;;;;;;;7.63;62.27;97135.63;5094858;27;19924;-61
2023/12/31 22:02:39;;;;;;;;;;;;;;;7.48;63.18;97152.22;5109104;27;19966;-61
2023/12/31 22:05:27;;;;;;;;;;;;;;;7.37;63.29;97146.28;5105118;27;19932;-61
2023/12/31 22:08:15;;;;;;;;;;;;;;;7.41;63.07;97141.84;5101227;27;20061;-61
2023/12/31 22:11:04;;;;;;;;;;;;;;;7.35;63.46;97145.81;5104380;27;19945;-62
2023/12/31 22:13:53;;;;;;;;;;;;;;;7.13;63.86;97143.88;5119934;27;19920;-61
2023/12/31 22:16:43;;;;;;;;;;;;;;;7.21;63.71;97151.25;5104209;27;19919;-61
2023/12/31 22:19:31;;;;;;;;;;;;;;;7.27;63.57;97151.94;5093657;27;19988;-61
2023/12/31 22:22:19;;;;;;;;;;;;;;;7.07;64.17;97158.63;5106946;27;20010;-62
2023/12/31 22:25:07;;;;;;;;;;;;;;;7.19;63.75;97164.28;5102372;27;19927;-61
2023/12/31 22:27:55;;;;;;;;;;;;;;;7.06;64.01;97155.13;5112026;27;20276;-61
2023/12/31 22:30:45;;;;;;;;;;;;;;;6.95;64.16;97144.88;5122294;27;19926;-62
2023/12/31 22:33:34;;;;;;;;;;;;;;;7.05;63.89;97147.34;5099441;27;19932;-61
2023/12/31 22:36:22;;;;;;;;;;;;;;;7.11;64.01;97146.09;5106014;27;19926;-62
2023/12/31 22:39:10;;;;;;;;;;;;;;;7.12;63.83;97142.28;5102655;27;19927;-62
2023/12/31 22:41:58;;;;;;;;;;;;;;;6.90;64.01;97132.28;5104107;27;19981;-61
2023/12/31 22:44:46;;;;;;;;;;;;;;;6.78;65.13;97140.94;5106529;27;19919;-62
2023/12/31 22:47:36;;;;;;;;;;;;;;;6.68;64.76;97141.16;5096621;28;19927;-61
2023/12/31 22:50:25;;;;;;;;;;;;;;;6.80;64.51;97132.53;5099853;28;20802;-63
2023/12/31 22:53:13;;;;;;;;;;;;;;;6.62;65.08;97134.28;5085065;28;19927;-62
2023/12/31 22:56:02;;;;;;;;;;;;;;;6.79;64.42;97141.72;5104118;27;19932;-62
2023/12/31 22:58:50;;;;;;;;;;;;;;;6.74;64.66;97139.16;5106313;27;19919;-63
2023/12/31 23:01:38;;;;;;;;;;;;;;;6.94;64.40;97135.97;5101107;27;19969;-63
2023/12/31 23:04:29;;;;;;;;;;;;;;;6.86;64.03;97139.41;5099608;27;20432;-62
2023/12/31 23:07:17;;;;;;;;;;;;;;;6.90;64.02;97135.00;5098435;28;20406;-62
2023/12/31 23:10:05;;;;;;;;;;;;;;;6.91;63.88;97131.19;5105516;27;19927;-63
2023/12/31 23:12:53;;;;;;;;;;;;;;;6.85;64.21;97139.72;5102483;27;20436;-63
2023/12/31 23:15:42;;;;;;;;;;;;;;;6.74;63.93;97141.84;5112712;27;19928;-62
2023/12/31 23:18:30;;;;;;;;;;;;;;;6.80;64.16;97136.03;5107196;28;20419;-63
2023/12/31 23:21:19;;;;;;;;;;;;;;;6.72;64.39;97142.16;5107123;27;19924;-63
2023/12/31 23:24:07;;;;;;;;;;;;;;;6.88;63.48;97145.31;5109845;27;19919;-63
2023/12/31 23:26:55;;;;;;;;;;;;;;;6.78;63.85;97157.13;5102291;27;19928;-63
2023/12/31 23:29:44;;;;;;;;;;;;;;;6.90;63.88;97161.19;5104195;27;20006;-64
2023/12/31 23:32:32;;;;;;;;;;;;;;;6.71;64.60;97174.84;5102283;28;19969;-62